Airfield :
LOGIN :

Register | Disclaimer

   EN    FR    IT 

 










Legend :    VFR   Marginal VFR   IFR   Intensive IFR   Very Intensive IFR
Visi :
Ceiling :
>= 8 km
>= 3000ft
5 to 8 km
1000 to 3000 ft
1500m to 5 km
500 to 1000 ft
800 to 1500m
200 to 500 ft
< 800m
< 200 ft
Symbols :   Thunderstorms  Fog  Heavy snow  Heavy precipitations  Wind > 20 kt
SIGMETs :     Misc.  Thunderstorms  Icing  Turbulence  Mountain Waves  Volcanic Ashes






- Airport Elevation : 2302 ft


LEAB - Albacete

CURRENT METAR :
  • 261830Z 33006KT CAVOK 09/03 Q1020 NOSIG

EXPIRED METARs :
  • 261800Z 32007KT 9999 FEW043 10/03 Q1020 NOSIG
  • 261730Z 32007KT CAVOK 10/03 Q1020 NOSIG
  • 261700Z 31010KT CAVOK 11/03 Q1019 NOSIG
  • 261630Z 31014KT CAVOK 12/03 Q1019 NOSIG
  • 261600Z 30019KT 9999 FEW042 12/02 Q1019 NOSIG

TAF TAF LEAB
Valid from the 26 at 18:00 until the 27 at 18:00 UTC


261700Z 2618/2718 30014KT CAVOK TX15/2715Z TN03/2706Z
TEMPO 2620/2708 VRB05KT



MET'MAP, your aeronautical weather chart ! - Copyright ORBIFLY December 2007 - Disclaimer

ORBIFLY MET'MAP TEAM :

Programming & Development : Alexandra Zaïnal
Concept & original design : Baudouin d'Aumeries
Assistance for programming : Marc-Olivier Méhu
Technical & hardware support : Manuel Goepfert

Contact : metmap@orbifly.com




SOURCES & CREDITS :

   NOAA